sensor_id;sensor_type;location;lat;lon;timestamp;temperature;humidity
32749;DHT22;19119;52.474;13.710;2023-05-10T00:01:42;11.20;98.70
32749;DHT22;19119;52.474;13.710;2023-05-10T00:04:07;11.10;99.20
32749;DHT22;19119;52.474;13.710;2023-05-10T00:06:33;11.00;99.40
32749;DHT22;19119;52.474;13.710;2023-05-10T00:08:58;10.90;99.50
32749;DHT22;19119;52.474;13.710;2023-05-10T00:11:24;10.80;99.60
32749;DHT22;19119;52.474;13.710;2023-05-10T00:13:49;10.80;99.80
32749;DHT22;19119;52.474;13.710;2023-05-10T00:16:15;10.80;99.70
32749;DHT22;19119;52.474;13.710;2023-05-10T00:18:40;10.70;99.80
32749;DHT22;19119;52.474;13.710;2023-05-10T00:21:06;10.70;99.90
32749;DHT22;19119;52.474;13.710;2023-05-10T00:23:31;10.60;99.90
32749;DHT22;19119;52.474;13.710;2023-05-10T00:25:57;10.70;99.90
32749;DHT22;19119;52.474;13.710;2023-05-10T00:28:22;10.60;99.90
32749;DHT22;19119;52.474;13.710;2023-05-10T00:30:48;10.60;99.90
32749;DHT22;19119;52.474;13.710;2023-05-10T00:33:13;10.60;99.90
32749;DHT22;19119;52.474;13.710;2023-05-10T00:35:39;10.60;99.90
32749;DHT22;19119;52.474;13.710;2023-05-10T00:38:05;10.50;99.90
32749;DHT22;19119;52.474;13.710;2023-05-10T00:40:31;10.50;99.90
32749;DHT22;19119;52.474;13.710;2023-05-10T00:42:57;10.60;99.90
32749;DHT22;19119;52.474;13.710;2023-05-10T00:45:23;10.60;99.90
32749;DHT22;19119;52.474;13.710;2023-05-10T00:47:49;10.50;99.90
32749;DHT22;19119;52.474;13.710;2023-05-10T00:50:15;10.50;99.90
32749;DHT22;19119;52.474;13.710;2023-05-10T00:52:41;10.50;99.90
32749;DHT22;19119;52.474;13.710;2023-05-10T00:55:10;10.50;99.90
32749;DHT22;19119;52.474;13.710;2023-05-10T00:57:36;10.50;99.90
32749;DHT22;19119;52.474;13.710;2023-05-10T01:00:02;10.50;99.90
32749;DHT22;19119;52.474;13.710;2023-05-10T01:02:28;10.50;99.90
32749;DHT22;19119;52.474;13.710;2023-05-10T01:04:54;10.40;99.90
32749;DHT22;19119;52.474;13.710;2023-05-10T01:07:20;10.40;99.90
32749;DHT22;19119;52.474;13.710;2023-05-10T01:09:45;10.50;99.90
32749;DHT22;19119;52.474;13.710;2023-05-10T01:12:11;10.50;99.90
32749;DHT22;19119;52.474;13.710;2023-05-10T01:14:37;10.40;99.90
32749;DHT22;19119;52.474;13.710;2023-05-10T01:17:03;10.50;99.90
32749;DHT22;19119;52.474;13.710;2023-05-10T01:19:31;10.50;99.90
32749;DHT22;19119;52.474;13.710;2023-05-10T01:22:39;10.40;99.90
32749;DHT22;19119;52.474;13.710;2023-05-10T01:25:24;10.40;99.90
32749;DHT22;19119;52.474;13.710;2023-05-10T01:31:07;10.40;99.90
32749;DHT22;19119;52.474;13.710;2023-05-10T01:33:41;10.30;99.90
32749;DHT22;19119;52.474;13.710;2023-05-10T01:39:19;10.30;99.90
32749;DHT22;19119;52.474;13.710;2023-05-10T01:42:10;10.30;99.90
32749;DHT22;19119;52.474;13.710;2023-05-10T01:44:52;10.20;99.90
32749;DHT22;19119;52.474;13.710;2023-05-10T01:47:31;10.20;99.90
32749;DHT22;19119;52.474;13.710;2023-05-10T01:50:03;10.20;99.90
32749;DHT22;19119;52.474;13.710;2023-05-10T01:52:33;10.10;99.90
32749;DHT22;19119;52.474;13.710;2023-05-10T01:55:08;10.00;99.90
32749;DHT22;19119;52.474;13.710;2023-05-10T01:57:36;10.10;99.90
32749;DHT22;19119;52.474;13.710;2023-05-10T02:00:03;10.10;99.90
32749;DHT22;19119;52.474;13.710;2023-05-10T02:02:37;10.10;99.90
32749;DHT22;19119;52.474;13.710;2023-05-10T02:05:05;10.10;99.90
32749;DHT22;19119;52.474;13.710;2023-05-10T02:07:34;10.00;99.90
32749;DHT22;19119;52.474;13.710;2023-05-10T02:10:02;10.00;99.90
32749;DHT22;19119;52.474;13.710;2023-05-10T02:12:29;10.00;99.90
32749;DHT22;19119;52.474;13.710;2023-05-10T02:14:59;10.00;99.90
32749;DHT22;19119;52.474;13.710;2023-05-10T02:17:27;9.90;99.90
32749;DHT22;19119;52.474;13.710;2023-05-10T02:19:54;9.90;99.90
32749;DHT22;19119;52.474;13.710;2023-05-10T02:22:22;9.90;99.90
32749;DHT22;19119;52.474;13.710;2023-05-10T02:24:47;9.90;99.90
32749;DHT22;19119;52.474;13.710;2023-05-10T02:30:32;9.90;99.90
32749;DHT22;19119;52.474;13.710;2023-05-10T02:32:58;9.80;99.90
32749;DHT22;19119;52.474;13.710;2023-05-10T02:35:25;9.80;99.90
32749;DHT22;19119;52.474;13.710;2023-05-10T02:37:52;9.80;99.90
32749;DHT22;19119;52.474;13.710;2023-05-10T02:40:19;9.70;99.90
32749;DHT22;19119;52.474;13.710;2023-05-10T02:42:47;9.80;99.90
32749;DHT22;19119;52.474;13.710;2023-05-10T02:45:17;9.80;99.90
32749;DHT22;19119;52.474;13.710;2023-05-10T02:47:43;9.70;99.90
32749;DHT22;19119;52.474;13.710;2023-05-10T02:50:09;9.70;99.90
32749;DHT22;19119;52.474;13.710;2023-05-10T02:52:47;9.70;99.90
32749;DHT22;19119;52.474;13.710;2023-05-10T02:55:16;9.60;99.90
32749;DHT22;19119;52.474;13.710;2023-05-10T02:57:59;9.60;99.90
32749;DHT22;19119;52.474;13.710;2023-05-10T03:00:25;9.60;99.90
32749;DHT22;19119;52.474;13.710;2023-05-10T03:02:51;9.60;99.90
32749;DHT22;19119;52.474;13.710;2023-05-10T03:05:17;9.60;99.90
32749;DHT22;19119;52.474;13.710;2023-05-10T03:07:43;9.60;99.90
32749;DHT22;19119;52.474;13.710;2023-05-10T03:10:09;9.50;99.90
32749;DHT22;19119;52.474;13.710;2023-05-10T03:13:02;9.50;99.90
32749;DHT22;19119;52.474;13.710;2023-05-10T03:18:28;9.50;99.90
32749;DHT22;19119;52.474;13.710;2023-05-10T03:20:59;9.50;99.90
32749;DHT22;19119;52.474;13.710;2023-05-10T03:23:37;9.40;99.90
32749;DHT22;19119;52.474;13.710;2023-05-10T03:26:04;9.40;99.90
32749;DHT22;19119;52.474;13.710;2023-05-10T03:28:31;9.40;99.90
32749;DHT22;19119;52.474;13.710;2023-05-10T03:30:59;9.30;99.90
32749;DHT22;19119;52.474;13.710;2023-05-10T03:33:25;9.40;99.90
32749;DHT22;19119;52.474;13.710;2023-05-10T03:35:50;9.30;99.90
32749;DHT22;19119;52.474;13.710;2023-05-10T03:38:16;9.30;99.90
32749;DHT22;19119;52.474;13.710;2023-05-10T03:40:41;9.30;99.90
32749;DHT22;19119;52.474;13.710;2023-05-10T03:43:07;9.30;99.90
32749;DHT22;19119;52.474;13.710;2023-05-10T03:45:32;9.30;99.90
32749;DHT22;19119;52.474;13.710;2023-05-10T03:47:58;9.30;99.90
32749;DHT22;19119;52.474;13.710;2023-05-10T03:50:24;9.30;99.90
32749;DHT22;19119;52.474;13.710;2023-05-10T03:52:49;9.30;99.90
32749;DHT22;19119;52.474;13.710;2023-05-10T03:55:15;9.30;99.90
32749;DHT22;19119;52.474;13.710;2023-05-10T03:57:41;9.30;99.90
32749;DHT22;19119;52.474;13.710;2023-05-10T04:00:07;9.30;99.90
32749;DHT22;19119;52.474;13.710;2023-05-10T04:02:33;9.30;99.90
32749;DHT22;19119;52.474;13.710;2023-05-10T04:04:59;9.40;99.90
32749;DHT22;19119;52.474;13.710;2023-05-10T04:07:24;9.40;99.90
32749;DHT22;19119;52.474;13.710;2023-05-10T04:09:50;9.40;99.90
32749;DHT22;19119;52.474;13.710;2023-05-10T04:12:15;9.50;99.90
32749;DHT22;19119;52.474;13.710;2023-05-10T04:14:41;9.50;99.90
32749;DHT22;19119;52.474;13.710;2023-05-10T04:17:06;9.60;99.90
32749;DHT22;19119;52.474;13.710;2023-05-10T04:19:32;9.60;99.90
32749;DHT22;19119;52.474;13.710;2023-05-10T04:21:58;9.70;99.90
32749;DHT22;19119;52.474;13.710;2023-05-10T04:24:24;9.70;99.90
32749;DHT22;19119;52.474;13.710;2023-05-10T04:26:50;9.80;99.90
32749;DHT22;19119;52.474;13.710;2023-05-10T04:29:15;9.90;99.90
32749;DHT22;19119;52.474;13.710;2023-05-10T04:31:41;10.00;99.90
32749;DHT22;19119;52.474;13.710;2023-05-10T04:34:06;10.20;99.90
32749;DHT22;19119;52.474;13.710;2023-05-10T04:36:32;10.30;99.90
32749;DHT22;19119;52.474;13.710;2023-05-10T04:38:59;10.40;99.90
32749;DHT22;19119;52.474;13.710;2023-05-10T04:41:24;10.40;99.90
32749;DHT22;19119;52.474;13.710;2023-05-10T04:43:50;10.60;99.90
32749;DHT22;19119;52.474;13.710;2023-05-10T04:46:16;10.80;99.90
32749;DHT22;19119;52.474;13.710;2023-05-10T04:48:41;11.20;99.90
32749;DHT22;19119;52.474;13.710;2023-05-10T04:51:07;11.50;99.90
32749;DHT22;19119;52.474;13.710;2023-05-10T04:53:32;11.90;99.70
32749;DHT22;19119;52.474;13.710;2023-05-10T04:55:58;12.30;99.30
32749;DHT22;19119;52.474;13.710;2023-05-10T04:58:23;12.50;99.10
32749;DHT22;19119;52.474;13.710;2023-05-10T05:00:49;12.60;98.90
32749;DHT22;19119;52.474;13.710;2023-05-10T05:03:14;12.80;98.60
32749;DHT22;19119;52.474;13.710;2023-05-10T05:05:40;13.00;98.40
32749;DHT22;19119;52.474;13.710;2023-05-10T05:08:05;13.20;98.30
32749;DHT22;19119;52.474;13.710;2023-05-10T05:10:31;13.50;98.10
32749;DHT22;19119;52.474;13.710;2023-05-10T05:12:56;13.80;97.80
32749;DHT22;19119;52.474;13.710;2023-05-10T05:15:22;14.00;97.60
32749;DHT22;19119;52.474;13.710;2023-05-10T05:17:47;14.30;97.80
32749;DHT22;19119;52.474;13.710;2023-05-10T05:20:13;14.60;97.10
32749;DHT22;19119;52.474;13.710;2023-05-10T05:22:38;14.70;97.60
32749;DHT22;19119;52.474;13.710;2023-05-10T05:25:04;14.70;97.10
32749;DHT22;19119;52.474;13.710;2023-05-10T05:27:31;15.00;96.50
32749;DHT22;19119;52.474;13.710;2023-05-10T05:29:57;14.90;96.50
32749;DHT22;19119;52.474;13.710;2023-05-10T05:32:23;15.00;96.50
32749;DHT22;19119;52.474;13.710;2023-05-10T05:34:49;14.80;96.60
32749;DHT22;19119;52.474;13.710;2023-05-10T05:37:16;15.10;96.90
32749;DHT22;19119;52.474;13.710;2023-05-10T05:39:42;15.30;95.90
32749;DHT22;19119;52.474;13.710;2023-05-10T05:42:09;15.40;95.90
32749;DHT22;19119;52.474;13.710;2023-05-10T05:44:35;15.30;96.20
32749;DHT22;19119;52.474;13.710;2023-05-10T05:47:00;15.50;96.00
32749;DHT22;19119;52.474;13.710;2023-05-10T05:49:26;15.70;96.00
32749;DHT22;19119;52.474;13.710;2023-05-10T05:51:51;15.40;96.00
32749;DHT22;19119;52.474;13.710;2023-05-10T05:54:17;15.30;96.10
32749;DHT22;19119;52.474;13.710;2023-05-10T05:56:42;15.40;96.40
32749;DHT22;19119;52.474;13.710;2023-05-10T05:59:09;15.80;96.20
32749;DHT22;19119;52.474;13.710;2023-05-10T06:01:35;16.10;96.50
32749;DHT22;19119;52.474;13.710;2023-05-10T06:04:00;16.50;96.00
32749;DHT22;19119;52.474;13.710;2023-05-10T06:06:26;16.30;95.40
32749;DHT22;19119;52.474;13.710;2023-05-10T06:08:52;16.30;95.90
32749;DHT22;19119;52.474;13.710;2023-05-10T06:11:17;16.50;96.00
32749;DHT22;19119;52.474;13.710;2023-05-10T06:13:43;16.60;95.40
32749;DHT22;19119;52.474;13.710;2023-05-10T06:16:08;16.30;95.50
32749;DHT22;19119;52.474;13.710;2023-05-10T06:18:34;16.10;95.80
32749;DHT22;19119;52.474;13.710;2023-05-10T06:21:00;16.20;95.80
32749;DHT22;19119;52.474;13.710;2023-05-10T06:23:25;16.30;96.10
32749;DHT22;19119;52.474;13.710;2023-05-10T06:25:51;16.30;96.40
32749;DHT22;19119;52.474;13.710;2023-05-10T06:28:17;16.40;95.60
32749;DHT22;19119;52.474;13.710;2023-05-10T06:30:42;16.50;95.90
32749;DHT22;19119;52.474;13.710;2023-05-10T06:33:08;16.80;96.00
32749;DHT22;19119;52.474;13.710;2023-05-10T06:35:34;16.80;95.80
32749;DHT22;19119;52.474;13.710;2023-05-10T06:37:59;16.60;95.50
32749;DHT22;19119;52.474;13.710;2023-05-10T06:40:25;16.60;95.60
32749;DHT22;19119;52.474;13.710;2023-05-10T06:42:50;16.70;95.90
32749;DHT22;19119;52.474;13.710;2023-05-10T06:45:16;16.80;95.80
32749;DHT22;19119;52.474;13.710;2023-05-10T06:47:42;16.70;95.80
32749;DHT22;19119;52.474;13.710;2023-05-10T06:50:08;16.70;95.80
32749;DHT22;19119;52.474;13.710;2023-05-10T06:52:34;16.90;96.00
32749;DHT22;19119;52.474;13.710;2023-05-10T06:55:00;17.30;95.70
32749;DHT22;19119;52.474;13.710;2023-05-10T06:57:26;17.10;95.60
32749;DHT22;19119;52.474;13.710;2023-05-10T06:59:52;17.00;96.00
32749;DHT22;19119;52.474;13.710;2023-05-10T07:02:17;17.10;95.60
32749;DHT22;19119;52.474;13.710;2023-05-10T07:04:43;17.10;95.20
32749;DHT22;19119;52.474;13.710;2023-05-10T07:07:08;17.30;95.60
32749;DHT22;19119;52.474;13.710;2023-05-10T07:09:34;17.40;95.60
32749;DHT22;19119;52.474;13.710;2023-05-10T07:11:59;17.60;95.10
32749;DHT22;19119;52.474;13.710;2023-05-10T07:14:27;17.50;95.20
32749;DHT22;19119;52.474;13.710;2023-05-10T07:16:52;17.50;95.40
32749;DHT22;19119;52.474;13.710;2023-05-10T07:19:18;17.70;95.50
32749;DHT22;19119;52.474;13.710;2023-05-10T07:21:43;17.90;95.70
32749;DHT22;19119;52.474;13.710;2023-05-10T07:24:09;18.00;95.30
32749;DHT22;19119;52.474;13.710;2023-05-10T07:26:34;17.80;95.20
32749;DHT22;19119;52.474;13.710;2023-05-10T07:29:00;18.00;95.50
32749;DHT22;19119;52.474;13.710;2023-05-10T07:31:26;18.30;95.40
32749;DHT22;19119;52.474;13.710;2023-05-10T07:33:51;18.50;95.10
32749;DHT22;19119;52.474;13.710;2023-05-10T07:36:17;18.60;95.10
32749;DHT22;19119;52.474;13.710;2023-05-10T07:38:42;18.80;94.80
32749;DHT22;19119;52.474;13.710;2023-05-10T07:41:08;18.70;94.90
32749;DHT22;19119;52.474;13.710;2023-05-10T07:43:33;18.50;94.80
32749;DHT22;19119;52.474;13.710;2023-05-10T07:45:59;18.60;94.80
32749;DHT22;19119;52.474;13.710;2023-05-10T07:48:25;18.70;94.60
32749;DHT22;19119;52.474;13.710;2023-05-10T07:50:51;18.80;94.70
32749;DHT22;19119;52.474;13.710;2023-05-10T07:53:16;18.80;94.70
32749;DHT22;19119;52.474;13.710;2023-05-10T07:55:43;19.20;94.80
32749;DHT22;19119;52.474;13.710;2023-05-10T07:58:09;19.50;94.50
32749;DHT22;19119;52.474;13.710;2023-05-10T08:00:34;19.70;94.60
32749;DHT22;19119;52.474;13.710;2023-05-10T08:03:00;19.50;94.30
32749;DHT22;19119;52.474;13.710;2023-05-10T08:05:26;19.70;94.60
32749;DHT22;19119;52.474;13.710;2023-05-10T08:07:51;19.70;94.40
32749;DHT22;19119;52.474;13.710;2023-05-10T08:10:17;19.80;94.30
32749;DHT22;19119;52.474;13.710;2023-05-10T08:12:42;19.80;94.40
32749;DHT22;19119;52.474;13.710;2023-05-10T08:15:08;20.10;94.50
32749;DHT22;19119;52.474;13.710;2023-05-10T08:17:34;20.10;94.40
32749;DHT22;19119;52.474;13.710;2023-05-10T08:19:59;20.20;94.40
32749;DHT22;19119;52.474;13.710;2023-05-10T08:22:25;20.30;94.20
32749;DHT22;19119;52.474;13.710;2023-05-10T08:24:51;20.10;94.40
32749;DHT22;19119;52.474;13.710;2023-05-10T08:27:16;20.40;94.10
32749;DHT22;19119;52.474;13.710;2023-05-10T08:29:42;20.40;94.20
32749;DHT22;19119;52.474;13.710;2023-05-10T08:32:07;20.40;94.30
32749;DHT22;19119;52.474;13.710;2023-05-10T08:34:33;20.50;94.00
32749;DHT22;19119;52.474;13.710;2023-05-10T08:36:58;20.90;94.30
32749;DHT22;19119;52.474;13.710;2023-05-10T08:39:24;21.10;94.00
32749;DHT22;19119;52.474;13.710;2023-05-10T08:41:51;20.90;93.30
32749;DHT22;19119;52.474;13.710;2023-05-10T08:44:19;21.30;93.70
32749;DHT22;19119;52.474;13.710;2023-05-10T08:46:46;21.40;92.90
32749;DHT22;19119;52.474;13.710;2023-05-10T08:49:16;21.30;92.90
32749;DHT22;19119;52.474;13.710;2023-05-10T08:51:47;21.60;94.20
32749;DHT22;19119;52.474;13.710;2023-05-10T08:54:15;21.80;93.20
32749;DHT22;19119;52.474;13.710;2023-05-10T08:56:41;21.60;93.90
32749;DHT22;19119;52.474;13.710;2023-05-10T08:59:07;21.50;93.20
32749;DHT22;19119;52.474;13.710;2023-05-10T09:01:33;21.60;93.50
32749;DHT22;19119;52.474;13.710;2023-05-10T09:04:00;21.70;93.20
32749;DHT22;19119;52.474;13.710;2023-05-10T09:06:26;21.70;93.30
32749;DHT22;19119;52.474;13.710;2023-05-10T09:08:52;21.80;93.40
32749;DHT22;19119;52.474;13.710;2023-05-10T09:11:17;22.00;93.60
32749;DHT22;19119;52.474;13.710;2023-05-10T09:13:47;21.90;93.20
32749;DHT22;19119;52.474;13.710;2023-05-10T09:16:12;22.10;94.10
32749;DHT22;19119;52.474;13.710;2023-05-10T09:18:38;22.30;93.40
32749;DHT22;19119;52.474;13.710;2023-05-10T09:21:03;22.10;92.90
32749;DHT22;19119;52.474;13.710;2023-05-10T09:23:29;22.20;93.40
32749;DHT22;19119;52.474;13.710;2023-05-10T09:26:07;22.10;93.30
32749;DHT22;19119;52.474;13.710;2023-05-10T09:28:54;21.80;92.90
32749;DHT22;19119;52.474;13.710;2023-05-10T09:31:20;21.70;93.10
32749;DHT22;19119;52.474;13.710;2023-05-10T09:33:47;22.00;93.50
32749;DHT22;19119;52.474;13.710;2023-05-10T09:36:14;21.70;93.10
32749;DHT22;19119;52.474;13.710;2023-05-10T09:38:50;21.90;93.10
32749;DHT22;19119;52.474;13.710;2023-05-10T09:41:20;21.90;92.90
32749;DHT22;19119;52.474;13.710;2023-05-10T09:43:46;22.10;93.00
32749;DHT22;19119;52.474;13.710;2023-05-10T09:46:12;22.40;92.80
32749;DHT22;19119;52.474;13.710;2023-05-10T09:48:46;22.40;92.30
32749;DHT22;19119;52.474;13.710;2023-05-10T09:51:22;22.40;92.80
32749;DHT22;19119;52.474;13.710;2023-05-10T09:53:48;22.70;92.40
32749;DHT22;19119;52.474;13.710;2023-05-10T09:56:33;22.70;92.70
32749;DHT22;19119;52.474;13.710;2023-05-10T09:59:03;22.60;92.00
32749;DHT22;19119;52.474;13.710;2023-05-10T10:01:29;22.30;92.60
32749;DHT22;19119;52.474;13.710;2023-05-10T10:03:55;22.70;92.60
32749;DHT22;19119;52.474;13.710;2023-05-10T10:06:23;22.40;92.60
32749;DHT22;19119;52.474;13.710;2023-05-10T10:08:48;22.80;92.90
32749;DHT22;19119;52.474;13.710;2023-05-10T10:11:14;22.90;92.10
32749;DHT22;19119;52.474;13.710;2023-05-10T10:13:40;23.00;92.50
32749;DHT22;19119;52.474;13.710;2023-05-10T10:16:05;23.30;92.30
32749;DHT22;19119;52.474;13.710;2023-05-10T10:18:31;23.60;92.60
32749;DHT22;19119;52.474;13.710;2023-05-10T10:20:57;23.30;91.80
32749;DHT22;19119;52.474;13.710;2023-05-10T10:23:23;23.00;92.90
32749;DHT22;19119;52.474;13.710;2023-05-10T10:25:49;23.00;92.30
32749;DHT22;19119;52.474;13.710;2023-05-10T10:28:35;23.10;91.60
32749;DHT22;19119;52.474;13.710;2023-05-10T10:31:36;23.00;91.70
32749;DHT22;19119;52.474;13.710;2023-05-10T10:34:26;23.10;91.40
32749;DHT22;19119;52.474;13.710;2023-05-10T10:36:55;23.10;91.80
32749;DHT22;19119;52.474;13.710;2023-05-10T10:39:21;23.50;91.90
32749;DHT22;19119;52.474;13.710;2023-05-10T10:41:53;23.10;92.40
32749;DHT22;19119;52.474;13.710;2023-05-10T10:44:26;23.40;92.30
32749;DHT22;19119;52.474;13.710;2023-05-10T10:52:31;23.60;91.90
32749;DHT22;19119;52.474;13.710;2023-05-10T10:55:14;24.40;92.60
32749;DHT22;19119;52.474;13.710;2023-05-10T11:02:59;24.00;91.60
32749;DHT22;19119;52.474;13.710;2023-05-10T11:05:34;23.80;92.30
32749;DHT22;19119;52.474;13.710;2023-05-10T11:08:12;24.00;92.00
32749;DHT22;19119;52.474;13.710;2023-05-10T11:10:38;24.60;91.60
32749;DHT22;19119;52.474;13.710;2023-05-10T11:13:10;24.80;91.20
32749;DHT22;19119;52.474;13.710;2023-05-10T11:15:37;24.40;91.20
32749;DHT22;19119;52.474;13.710;2023-05-10T11:18:23;24.10;91.20
32749;DHT22;19119;52.474;13.710;2023-05-10T11:21:00;24.10;90.50
32749;DHT22;19119;52.474;13.710;2023-05-10T11:23:32;24.10;91.00
32749;DHT22;19119;52.474;13.710;2023-05-10T11:26:13;24.40;91.60
32749;DHT22;19119;52.474;13.710;2023-05-10T11:28:43;24.70;90.80
32749;DHT22;19119;52.474;13.710;2023-05-10T11:31:09;24.70;91.20
32749;DHT22;19119;52.474;13.710;2023-05-10T11:36:36;24.30;91.20
32749;DHT22;19119;52.474;13.710;2023-05-10T11:39:03;24.50;91.60
32749;DHT22;19119;52.474;13.710;2023-05-10T11:41:29;25.10;91.60
32749;DHT22;19119;52.474;13.710;2023-05-10T11:43:56;24.90;91.50
32749;DHT22;19119;52.474;13.710;2023-05-10T11:46:27;24.70;90.60
32749;DHT22;19119;52.474;13.710;2023-05-10T11:48:55;24.80;91.20
32749;DHT22;19119;52.474;13.710;2023-05-10T11:51:23;25.00;90.40
32749;DHT22;19119;52.474;13.710;2023-05-10T11:53:52;25.00;91.00
32749;DHT22;19119;52.474;13.710;2023-05-10T11:56:17;25.00;90.80
32749;DHT22;19119;52.474;13.710;2023-05-10T11:58:43;24.70;90.60
32749;DHT22;19119;52.474;13.710;2023-05-10T12:01:08;24.40;91.10
32749;DHT22;19119;52.474;13.710;2023-05-10T12:03:35;24.80;92.00
32749;DHT22;19119;52.474;13.710;2023-05-10T12:06:02;24.80;90.70
32749;DHT22;19119;52.474;13.710;2023-05-10T12:08:29;24.80;90.70
32749;DHT22;19119;52.474;13.710;2023-05-10T12:11:07;25.30;90.60
32749;DHT22;19119;52.474;13.710;2023-05-10T12:13:41;25.50;90.10
32749;DHT22;19119;52.474;13.710;2023-05-10T12:16:18;25.80;90.90
32749;DHT22;19119;52.474;13.710;2023-05-10T12:18:45;25.70;89.80
32749;DHT22;19119;52.474;13.710;2023-05-10T12:21:11;25.50;89.20
32749;DHT22;19119;52.474;13.710;2023-05-10T12:23:38;25.50;89.50
32749;DHT22;19119;52.474;13.710;2023-05-10T12:26:04;25.10;90.40
32749;DHT22;19119;52.474;13.710;2023-05-10T12:28:31;25.00;90.60
32749;DHT22;19119;52.474;13.710;2023-05-10T12:30:58;24.90;89.40
32749;DHT22;19119;52.474;13.710;2023-05-10T12:33:24;25.10;90.20
32749;DHT22;19119;52.474;13.710;2023-05-10T12:35:53;25.60;90.20
32749;DHT22;19119;52.474;13.710;2023-05-10T12:38:29;26.00;90.40
32749;DHT22;19119;52.474;13.710;2023-05-10T12:40:59;25.90;89.50
32749;DHT22;19119;52.474;13.710;2023-05-10T12:43:24;25.70;88.90
32749;DHT22;19119;52.474;13.710;2023-05-10T12:45:50;25.90;89.70
32749;DHT22;19119;52.474;13.710;2023-05-10T12:48:15;25.70;89.10
32749;DHT22;19119;52.474;13.710;2023-05-10T12:50:41;26.00;87.70
32749;DHT22;19119;52.474;13.710;2023-05-10T12:53:07;26.00;87.50
32749;DHT22;19119;52.474;13.710;2023-05-10T12:55:32;26.20;87.00
32749;DHT22;19119;52.474;13.710;2023-05-10T12:57:58;26.10;87.90
32749;DHT22;19119;52.474;13.710;2023-05-10T13:00:23;25.80;86.90
32749;DHT22;19119;52.474;13.710;2023-05-10T13:02:49;25.30;84.40
32749;DHT22;19119;52.474;13.710;2023-05-10T13:05:14;25.40;86.20
32749;DHT22;19119;52.474;13.710;2023-05-10T13:07:40;25.60;86.50
32749;DHT22;19119;52.474;13.710;2023-05-10T13:10:06;25.80;87.90
32749;DHT22;19119;52.474;13.710;2023-05-10T13:12:32;25.80;86.60
32749;DHT22;19119;52.474;13.710;2023-05-10T13:14:58;25.80;86.20
32749;DHT22;19119;52.474;13.710;2023-05-10T13:17:24;25.30;86.10
32749;DHT22;19119;52.474;13.710;2023-05-10T13:19:50;25.20;84.50
32749;DHT22;19119;52.474;13.710;2023-05-10T13:22:15;25.50;84.90
32749;DHT22;19119;52.474;13.710;2023-05-10T13:24:41;25.50;84.90
32749;DHT22;19119;52.474;13.710;2023-05-10T13:27:06;25.90;87.90
32749;DHT22;19119;52.474;13.710;2023-05-10T13:29:32;25.70;84.40
32749;DHT22;19119;52.474;13.710;2023-05-10T13:31:58;26.20;87.00
32749;DHT22;19119;52.474;13.710;2023-05-10T13:34:23;26.20;83.50
32749;DHT22;19119;52.474;13.710;2023-05-10T13:36:49;26.00;84.40
32749;DHT22;19119;52.474;13.710;2023-05-10T13:39:15;25.90;83.30
32749;DHT22;19119;52.474;13.710;2023-05-10T13:41:40;25.90;85.40
32749;DHT22;19119;52.474;13.710;2023-05-10T13:44:06;26.20;85.60
32749;DHT22;19119;52.474;13.710;2023-05-10T13:46:31;26.50;85.70
32749;DHT22;19119;52.474;13.710;2023-05-10T13:48:57;26.70;85.30
32749;DHT22;19119;52.474;13.710;2023-05-10T13:51:22;26.70;84.50
32749;DHT22;19119;52.474;13.710;2023-05-10T13:53:48;26.70;84.60
32749;DHT22;19119;52.474;13.710;2023-05-10T13:56:14;26.10;83.30
32749;DHT22;19119;52.474;13.710;2023-05-10T13:58:39;26.50;84.60
32749;DHT22;19119;52.474;13.710;2023-05-10T14:01:05;26.10;82.70
32749;DHT22;19119;52.474;13.710;2023-05-10T14:03:31;26.00;82.60
32749;DHT22;19119;52.474;13.710;2023-05-10T14:05:57;25.80;84.90
32749;DHT22;19119;52.474;13.710;2023-05-10T14:08:23;26.20;83.30
32749;DHT22;19119;52.474;13.710;2023-05-10T14:10:49;25.80;82.60
32749;DHT22;19119;52.474;13.710;2023-05-10T14:13:16;25.90;83.80
32749;DHT22;19119;52.474;13.710;2023-05-10T14:15:41;25.80;83.30
32749;DHT22;19119;52.474;13.710;2023-05-10T14:18:07;26.20;83.90
32749;DHT22;19119;52.474;13.710;2023-05-10T14:20:32;26.30;82.70
32749;DHT22;19119;52.474;13.710;2023-05-10T14:22:59;26.10;82.80
32749;DHT22;19119;52.474;13.710;2023-05-10T14:25:25;26.20;82.20
32749;DHT22;19119;52.474;13.710;2023-05-10T14:27:51;26.00;82.00
32749;DHT22;19119;52.474;13.710;2023-05-10T14:30:16;25.80;81.90
32749;DHT22;19119;52.474;13.710;2023-05-10T14:32:42;26.00;82.70
32749;DHT22;19119;52.474;13.710;2023-05-10T14:35:08;26.00;81.40
32749;DHT22;19119;52.474;13.710;2023-05-10T14:37:34;25.90;81.10
32749;DHT22;19119;52.474;13.710;2023-05-10T14:40:00;26.10;82.30
32749;DHT22;19119;52.474;13.710;2023-05-10T14:42:29;26.20;81.70
32749;DHT22;19119;52.474;13.710;2023-05-10T14:44:55;25.90;81.20
32749;DHT22;19119;52.474;13.710;2023-05-10T14:47:20;25.80;81.60
32749;DHT22;19119;52.474;13.710;2023-05-10T14:49:46;25.60;81.70
32749;DHT22;19119;52.474;13.710;2023-05-10T14:52:12;25.40;81.80
32749;DHT22;19119;52.474;13.710;2023-05-10T14:54:39;25.40;81.80
32749;DHT22;19119;52.474;13.710;2023-05-10T14:57:06;25.40;81.30
32749;DHT22;19119;52.474;13.710;2023-05-10T14:59:32;25.30;82.10
32749;DHT22;19119;52.474;13.710;2023-05-10T15:01:58;25.30;82.50
32749;DHT22;19119;52.474;13.710;2023-05-10T15:04:24;25.20;82.70
32749;DHT22;19119;52.474;13.710;2023-05-10T15:06:49;25.30;83.10
32749;DHT22;19119;52.474;13.710;2023-05-10T15:09:15;25.70;82.40
32749;DHT22;19119;52.474;13.710;2023-05-10T15:11:41;25.60;81.50
32749;DHT22;19119;52.474;13.710;2023-05-10T15:14:07;25.50;81.90
32749;DHT22;19119;52.474;13.710;2023-05-10T15:16:33;25.60;81.90
32749;DHT22;19119;52.474;13.710;2023-05-10T15:19:00;25.40;81.80
32749;DHT22;19119;52.474;13.710;2023-05-10T15:21:25;25.30;81.00
32749;DHT22;19119;52.474;13.710;2023-05-10T15:23:52;25.30;81.60
32749;DHT22;19119;52.474;13.710;2023-05-10T15:26:18;25.20;82.00
32749;DHT22;19119;52.474;13.710;2023-05-10T15:28:43;25.50;82.60
32749;DHT22;19119;52.474;13.710;2023-05-10T15:31:09;25.60;82.10
32749;DHT22;19119;52.474;13.710;2023-05-10T15:33:37;25.30;80.80
32749;DHT22;19119;52.474;13.710;2023-05-10T15:36:03;24.90;81.80
32749;DHT22;19119;52.474;13.710;2023-05-10T15:38:29;25.00;82.30
32749;DHT22;19119;52.474;13.710;2023-05-10T15:40:56;25.10;82.50
32749;DHT22;19119;52.474;13.710;2023-05-10T15:43:22;25.20;81.20
32749;DHT22;19119;52.474;13.710;2023-05-10T15:45:47;25.10;81.60